sensor_id;sensor_type;location;lat;lon;timestamp;pressure;altitude;pressure_sealevel;temperature;humidity
43824;BME280;29470;53.550;9.926;2023-03-04T00:03:48;101666.13;;;8.67;73.67
43824;BME280;29470;53.550;9.926;2023-03-04T00:08:52;101661.13;;;8.40;74.32
43824;BME280;29470;53.550;9.926;2023-03-04T00:13:55;101681.38;;;8.27;75.28
43824;BME280;29470;53.550;9.926;2023-03-04T00:18:58;101657.06;;;8.06;76.41
43824;BME280;29470;53.550;9.926;2023-03-04T00:24:02;101660.09;;;8.38;75.10
43824;BME280;29470;53.550;9.926;2023-03-04T00:29:05;101666.69;;;8.92;73.12
43824;BME280;29470;53.550;9.926;2023-03-04T00:34:08;101653.31;;;8.77;72.79
43824;BME280;29470;53.550;9.926;2023-03-04T00:39:14;101648.16;;;8.96;72.01
43824;BME280;29470;53.550;9.926;2023-03-04T00:44:16;101649.00;;;8.87;71.82
43824;BME280;29470;53.550;9.926;2023-03-04T00:49:20;101642.06;;;9.15;70.55
43824;BME280;29470;53.550;9.926;2023-03-04T00:54:24;101639.91;;;9.01;71.85
43824;BME280;29470;53.550;9.926;2023-03-04T00:59:27;101637.91;;;8.49;74.62
43824;BME280;29470;53.550;9.926;2023-03-04T01:04:30;101622.72;;;8.72;73.12
43824;BME280;29470;53.550;9.926;2023-03-04T01:09:35;101626.78;;;8.59;73.66
43824;BME280;29470;53.550;9.926;2023-03-04T01:14:37;101618.94;;;9.06;72.34
43824;BME280;29470;53.550;9.926;2023-03-04T01:19:40;101614.63;;;8.77;72.53
43824;BME280;29470;53.550;9.926;2023-03-04T01:24:44;101599.84;;;8.66;73.62
43824;BME280;29470;53.550;9.926;2023-03-04T01:29:47;101590.53;;;8.77;72.89
43824;BME280;29470;53.550;9.926;2023-03-04T01:34:50;101591.72;;;8.33;75.78
43824;BME280;29470;53.550;9.926;2023-03-04T01:39:54;101585.34;;;8.58;75.07
43824;BME280;29470;53.550;9.926;2023-03-04T01:44:57;101578.59;;;8.49;76.26
43824;BME280;29470;53.550;9.926;2023-03-04T01:50:03;101566.34;;;8.95;73.27
43824;BME280;29470;53.550;9.926;2023-03-04T01:55:13;101569.34;;;8.71;74.37
43824;BME280;29470;53.550;9.926;2023-03-04T02:00:26;101556.72;;;8.74;74.02
43824;BME280;29470;53.550;9.926;2023-03-04T02:05:31;101562.81;;;8.46;76.48
43824;BME280;29470;53.550;9.926;2023-03-04T02:10:36;101554.75;;;8.71;74.85
43824;BME280;29470;53.550;9.926;2023-03-04T02:15:39;101549.97;;;8.95;74.03
43824;BME280;29470;53.550;9.926;2023-03-04T02:20:53;101536.25;;;8.56;76.20
43824;BME280;29470;53.550;9.926;2023-03-04T02:26:23;101541.34;;;8.37;77.11
43824;BME280;29470;53.550;9.926;2023-03-04T02:31:31;101532.00;;;8.86;74.43
43824;BME280;29470;53.550;9.926;2023-03-04T02:36:35;101526.75;;;8.27;78.25
43824;BME280;29470;53.550;9.926;2023-03-04T02:41:39;101520.34;;;8.71;76.04
43824;BME280;29470;53.550;9.926;2023-03-04T02:46:46;101516.41;;;8.46;77.99
43824;BME280;29470;53.550;9.926;2023-03-04T02:51:50;101510.03;;;8.51;76.81
43824;BME280;29470;53.550;9.926;2023-03-04T02:56:58;101512.38;;;8.78;77.51
43824;BME280;29470;53.550;9.926;2023-03-04T03:02:02;101498.81;;;8.80;77.59
43824;BME280;29470;53.550;9.926;2023-03-04T03:07:07;101504.88;;;8.51;78.19
43824;BME280;29470;53.550;9.926;2023-03-04T03:12:11;101494.84;;;8.35;81.52
43824;BME280;29470;53.550;9.926;2023-03-04T03:17:14;101497.19;;;8.43;80.43
43824;BME280;29470;53.550;9.926;2023-03-04T03:22:17;101492.25;;;8.74;80.73
43824;BME280;29470;53.550;9.926;2023-03-04T03:27:23;101492.84;;;8.71;80.18
43824;BME280;29470;53.550;9.926;2023-03-04T03:32:26;101491.53;;;8.66;81.78
43824;BME280;29470;53.550;9.926;2023-03-04T03:37:29;101480.41;;;8.37;84.35
43824;BME280;29470;53.550;9.926;2023-03-04T03:42:33;101477.94;;;8.39;84.56
43824;BME280;29470;53.550;9.926;2023-03-04T03:47:36;101479.84;;;7.93;88.03
43824;BME280;29470;53.550;9.926;2023-03-04T03:52:39;101464.03;;;8.37;86.86
43824;BME280;29470;53.550;9.926;2023-03-04T03:57:43;101472.00;;;8.49;87.30
43824;BME280;29470;53.550;9.926;2023-03-04T04:02:45;101461.03;;;8.71;85.97
43824;BME280;29470;53.550;9.926;2023-03-04T04:07:48;101460.16;;;8.51;84.69
43824;BME280;29470;53.550;9.926;2023-03-04T04:12:55;101464.81;;;8.84;83.47
43824;BME280;29470;53.550;9.926;2023-03-04T04:17:58;101454.06;;;8.69;82.31
43824;BME280;29470;53.550;9.926;2023-03-04T04:23:02;101462.22;;;8.55;81.14
43824;BME280;29470;53.550;9.926;2023-03-04T04:28:06;101462.91;;;8.63;81.19
43824;BME280;29470;53.550;9.926;2023-03-04T04:33:09;101454.34;;;8.15;83.93
43824;BME280;29470;53.550;9.926;2023-03-04T04:38:12;101462.38;;;8.37;83.21
43824;BME280;29470;53.550;9.926;2023-03-04T04:43:16;101476.56;;;8.62;82.23
43824;BME280;29470;53.550;9.926;2023-03-04T04:48:19;101451.16;;;8.96;79.79
43824;BME280;29470;53.550;9.926;2023-03-04T04:53:22;101448.09;;;8.60;82.10
43824;BME280;29470;53.550;9.926;2023-03-04T04:58:26;101450.91;;;8.44;84.58
43824;BME280;29470;53.550;9.926;2023-03-04T05:03:29;101441.31;;;8.33;88.01
43824;BME280;29470;53.550;9.926;2023-03-04T05:08:32;101434.69;;;8.45;88.21
43824;BME280;29470;53.550;9.926;2023-03-04T05:13:36;101434.06;;;8.29;88.58
43824;BME280;29470;53.550;9.926;2023-03-04T05:18:39;101423.91;;;8.30;86.90
43824;BME280;29470;53.550;9.926;2023-03-04T05:23:43;101434.66;;;8.16;85.56
43824;BME280;29470;53.550;9.926;2023-03-04T05:28:47;101426.16;;;8.17;85.10
43824;BME280;29470;53.550;9.926;2023-03-04T05:33:50;101440.13;;;8.67;82.93
43824;BME280;29470;53.550;9.926;2023-03-04T05:38:53;101439.16;;;8.18;83.16
43824;BME280;29470;53.550;9.926;2023-03-04T05:43:57;101433.09;;;8.56;75.62
43824;BME280;29470;53.550;9.926;2023-03-04T05:49:00;101439.56;;;8.42;71.95
43824;BME280;29470;53.550;9.926;2023-03-04T05:54:03;101448.63;;;8.66;68.49
43824;BME280;29470;53.550;9.926;2023-03-04T05:59:07;101456.03;;;8.82;68.50
43824;BME280;29470;53.550;9.926;2023-03-04T06:04:10;101461.72;;;8.89;67.33
43824;BME280;29470;53.550;9.926;2023-03-04T06:09:13;101447.16;;;8.60;64.49
43824;BME280;29470;53.550;9.926;2023-03-04T06:14:17;101443.19;;;9.03;62.85
43824;BME280;29470;53.550;9.926;2023-03-04T06:19:20;101454.38;;;8.93;62.32
43824;BME280;29470;53.550;9.926;2023-03-04T06:24:23;101456.81;;;8.52;61.21
43824;BME280;29470;53.550;9.926;2023-03-04T06:29:27;101451.72;;;8.24;61.73
43824;BME280;29470;53.550;9.926;2023-03-04T06:34:30;101463.88;;;8.54;59.51
43824;BME280;29470;53.550;9.926;2023-03-04T06:39:34;101460.56;;;8.36;60.49
43824;BME280;29470;53.550;9.926;2023-03-04T06:44:38;101464.72;;;8.25;61.02
43824;BME280;29470;53.550;9.926;2023-03-04T06:49:41;101474.63;;;8.59;59.99
43824;BME280;29470;53.550;9.926;2023-03-04T06:54:44;101479.50;;;8.18;60.84
43824;BME280;29470;53.550;9.926;2023-03-04T06:59:48;101475.66;;;8.42;60.15
43824;BME280;29470;53.550;9.926;2023-03-04T07:04:51;101475.94;;;8.94;58.19
43824;BME280;29470;53.550;9.926;2023-03-04T07:09:54;101478.09;;;8.60;60.17
43824;BME280;29470;53.550;9.926;2023-03-04T07:14:58;101484.78;;;8.19;61.16
43824;BME280;29470;53.550;9.926;2023-03-04T07:20:01;101473.75;;;8.69;60.31
43824;BME280;29470;53.550;9.926;2023-03-04T07:25:04;101489.75;;;8.46;60.69
43824;BME280;29470;53.550;9.926;2023-03-04T07:30:10;101484.88;;;8.10;60.29
43824;BME280;29470;53.550;9.926;2023-03-04T07:35:13;101491.47;;;7.51;63.24
43824;BME280;29470;53.550;9.926;2023-03-04T07:40:17;101490.16;;;8.31;59.89
43824;BME280;29470;53.550;9.926;2023-03-04T07:45:22;101499.09;;;8.16;60.58
43824;BME280;29470;53.550;9.926;2023-03-04T07:50:25;101493.44;;;8.88;59.98
43824;BME280;29470;53.550;9.926;2023-03-04T07:55:27;101499.66;;;8.60;58.94
43824;BME280;29470;53.550;9.926;2023-03-04T08:00:33;101490.16;;;7.93;60.49
43824;BME280;29470;53.550;9.926;2023-03-04T08:05:38;101508.94;;;8.88;59.27
43824;BME280;29470;53.550;9.926;2023-03-04T08:10:40;101502.69;;;8.75;57.98
43824;BME280;29470;53.550;9.926;2023-03-04T08:15:45;101508.00;;;8.87;58.70
43824;BME280;29470;53.550;9.926;2023-03-04T08:20:48;101514.41;;;8.72;59.15
43824;BME280;29470;53.550;9.926;2023-03-04T08:25:51;101520.81;;;8.66;58.42
43824;BME280;29470;53.550;9.926;2023-03-04T08:30:55;101533.00;;;8.39;58.19
43824;BME280;29470;53.550;9.926;2023-03-04T08:35:58;101520.50;;;8.06;58.41
43824;BME280;29470;53.550;9.926;2023-03-04T08:41:01;101527.28;;;8.33;58.17
43824;BME280;29470;53.550;9.926;2023-03-04T08:46:06;101535.59;;;8.59;57.94
43824;BME280;29470;53.550;9.926;2023-03-04T08:51:11;101520.34;;;8.51;57.06
43824;BME280;29470;53.550;9.926;2023-03-04T08:56:15;101530.22;;;8.95;55.83
43824;BME280;29470;53.550;9.926;2023-03-04T09:01:19;101526.59;;;8.83;55.66
43824;BME280;29470;53.550;9.926;2023-03-04T09:06:22;101523.63;;;8.59;56.82
43824;BME280;29470;53.550;9.926;2023-03-04T09:11:24;101533.47;;;8.93;55.36
43824;BME280;29470;53.550;9.926;2023-03-04T09:16:29;101525.00;;;8.75;55.01
43824;BME280;29470;53.550;9.926;2023-03-04T09:21:31;101525.00;;;8.36;55.62
43824;BME280;29470;53.550;9.926;2023-03-04T09:26:34;101529.34;;;8.65;54.78
43824;BME280;29470;53.550;9.926;2023-03-04T09:31:38;101527.50;;;9.23;53.87
43824;BME280;29470;53.550;9.926;2023-03-04T09:36:41;101517.31;;;8.95;55.01
43824;BME280;29470;53.550;9.926;2023-03-04T09:41:46;101516.78;;;9.19;54.29
43824;BME280;29470;53.550;9.926;2023-03-04T09:46:51;101518.97;;;9.24;54.55
43824;BME280;29470;53.550;9.926;2023-03-04T09:52:01;101522.69;;;8.39;55.96
43824;BME280;29470;53.550;9.926;2023-03-04T09:57:21;101519.69;;;8.73;57.07
43824;BME280;29470;53.550;9.926;2023-03-04T10:02:33;101527.56;;;8.75;55.16
43824;BME280;29470;53.550;9.926;2023-03-04T10:07:40;101524.25;;;8.86;55.35
43824;BME280;29470;53.550;9.926;2023-03-04T10:12:46;101519.28;;;8.68;55.08
43824;BME280;29470;53.550;9.926;2023-03-04T10:17:56;101512.16;;;8.47;54.56
43824;BME280;29470;53.550;9.926;2023-03-04T10:23:09;101513.03;;;8.56;53.76
43824;BME280;29470;53.550;9.926;2023-03-04T10:28:16;101520.28;;;8.60;53.37
43824;BME280;29470;53.550;9.926;2023-03-04T10:33:23;101515.34;;;8.82;53.42
43824;BME280;29470;53.550;9.926;2023-03-04T10:38:30;101521.00;;;9.08;52.41
43824;BME280;29470;53.550;9.926;2023-03-04T10:43:34;101510.41;;;9.05;52.40
43824;BME280;29470;53.550;9.926;2023-03-04T10:48:39;101532.53;;;9.22;52.62
43824;BME280;29470;53.550;9.926;2023-03-04T10:53:43;101525.63;;;9.41;51.25
43824;BME280;29470;53.550;9.926;2023-03-04T10:58:46;101519.38;;;9.19;50.33
43824;BME280;29470;53.550;9.926;2023-03-04T11:03:50;101508.84;;;10.19;47.28
43824;BME280;29470;53.550;9.926;2023-03-04T11:08:56;101521.66;;;9.97;47.27
43824;BME280;29470;53.550;9.926;2023-03-04T11:14:02;101522.78;;;9.09;48.63
43824;BME280;29470;53.550;9.926;2023-03-04T11:19:13;101522.06;;;9.70;48.15
43824;BME280;29470;53.550;9.926;2023-03-04T11:24:22;101520.81;;;9.36;47.98
43824;BME280;29470;53.550;9.926;2023-03-04T11:29:33;101512.44;;;8.98;49.07
43824;BME280;29470;53.550;9.926;2023-03-04T11:34:44;101522.69;;;9.68;48.74
43824;BME280;29470;53.550;9.926;2023-03-04T11:39:52;101506.09;;;9.35;49.18
43824;BME280;29470;53.550;9.926;2023-03-04T11:44:56;101511.66;;;9.39;49.19
43824;BME280;29470;53.550;9.926;2023-03-04T11:50:11;101503.69;;;9.07;50.74
43824;BME280;29470;53.550;9.926;2023-03-04T11:55:28;101492.06;;;9.41;50.58
43824;BME280;29470;53.550;9.926;2023-03-04T12:00:39;101499.56;;;9.59;49.53
43824;BME280;29470;53.550;9.926;2023-03-04T12:05:52;101489.63;;;9.84;49.52
43824;BME280;29470;53.550;9.926;2023-03-04T12:11:02;101480.59;;;9.90;49.78
43824;BME280;29470;53.550;9.926;2023-03-04T12:16:18;101477.47;;;9.63;50.72
43824;BME280;29470;53.550;9.926;2023-03-04T12:21:38;101476.53;;;10.24;49.93
43824;BME280;29470;53.550;9.926;2023-03-04T12:26:48;101473.09;;;9.72;51.61
43824;BME280;29470;53.550;9.926;2023-03-04T12:32:00;101463.13;;;9.77;50.68
43824;BME280;29470;53.550;9.926;2023-03-04T12:42:39;101452.13;;;10.21;49.13
43824;BME280;29470;53.550;9.926;2023-03-04T12:47:53;101440.50;;;10.15;49.82
43824;BME280;29470;53.550;9.926;2023-03-04T12:53:08;101450.22;;;9.46;51.90
43824;BME280;29470;53.550;9.926;2023-03-04T12:58:15;101451.34;;;9.18;53.31
43824;BME280;29470;53.550;9.926;2023-03-04T13:03:26;101455.06;;;9.11;52.99
43824;BME280;29470;53.550;9.926;2023-03-04T13:08:45;101448.22;;;9.12;51.65
43824;BME280;29470;53.550;9.926;2023-03-04T13:14:00;101447.63;;;9.87;49.06
43824;BME280;29470;53.550;9.926;2023-03-04T13:19:47;101438.47;;;9.91;47.81
43824;BME280;29470;53.550;9.926;2023-03-04T13:24:51;101440.44;;;10.36;46.26
43824;BME280;29470;53.550;9.926;2023-03-04T13:29:55;101437.53;;;9.90;46.50
43824;BME280;29470;53.550;9.926;2023-03-04T13:34:59;101438.28;;;10.10;46.52
43824;BME280;29470;53.550;9.926;2023-03-04T13:40:34;101444.72;;;10.25;44.99
43824;BME280;29470;53.550;9.926;2023-03-04T13:45:37;101440.53;;;9.64;44.99
43824;BME280;29470;53.550;9.926;2023-03-04T13:50:44;101439.66;;;9.63;45.06
43824;BME280;29470;53.550;9.926;2023-03-04T13:56:07;101449.81;;;9.31;46.05
43824;BME280;29470;53.550;9.926;2023-03-04T14:01:26;101434.44;;;9.84;45.76
43824;BME280;29470;53.550;9.926;2023-03-04T14:06:32;101440.31;;;8.90;46.56
43824;BME280;29470;53.550;9.926;2023-03-04T14:11:38;101434.19;;;9.81;44.82
43824;BME280;29470;53.550;9.926;2023-03-04T14:16:46;101432.00;;;9.96;44.92
43824;BME280;29470;53.550;9.926;2023-03-04T14:21:52;101432.66;;;9.41;46.50
43824;BME280;29470;53.550;9.926;2023-03-04T14:27:13;101439.72;;;9.13;47.48
43824;BME280;29470;53.550;9.926;2023-03-04T14:32:16;101443.63;;;9.49;47.35
43824;BME280;29470;53.550;9.926;2023-03-04T14:37:22;101438.44;;;9.18;49.00
43824;BME280;29470;53.550;9.926;2023-03-04T14:42:38;101437.66;;;9.19;49.11
43824;BME280;29470;53.550;9.926;2023-03-04T14:47:44;101426.25;;;8.96;49.59
43824;BME280;29470;53.550;9.926;2023-03-04T14:53:02;101431.34;;;8.65;50.79
43824;BME280;29470;53.550;9.926;2023-03-04T14:58:07;101433.59;;;8.92;50.62
43824;BME280;29470;53.550;9.926;2023-03-04T15:03:18;101435.56;;;8.65;50.42
43824;BME280;29470;53.550;9.926;2023-03-04T15:08:26;101442.47;;;8.75;50.45
43824;BME280;29470;53.550;9.926;2023-03-04T15:13:37;101431.41;;;8.57;50.52
43824;BME280;29470;53.550;9.926;2023-03-04T15:18:53;101443.25;;;8.54;50.10
43824;BME280;29470;53.550;9.926;2023-03-04T15:23:57;101430.16;;;8.62;50.19
43824;BME280;29470;53.550;9.926;2023-03-04T15:29:02;101438.69;;;8.42;50.66
43824;BME280;29470;53.550;9.926;2023-03-04T15:34:11;101440.91;;;8.28;51.13
43824;BME280;29470;53.550;9.926;2023-03-04T15:39:17;101438.34;;;8.28;51.26
43824;BME280;29470;53.550;9.926;2023-03-04T15:44:22;101436.53;;;8.27;51.29
43824;BME280;29470;53.550;9.926;2023-03-04T15:49:24;101423.59;;;7.97;51.61
43824;BME280;29470;53.550;9.926;2023-03-04T15:54:29;101431.94;;;8.14;51.62
43824;BME280;29470;53.550;9.926;2023-03-04T15:59:32;101441.06;;;8.10;52.66
43824;BME280;29470;53.550;9.926;2023-03-04T16:04:35;101439.91;;;7.60;53.68
43824;BME280;29470;53.550;9.926;2023-03-04T16:09:40;101435.97;;;7.82;53.71
43824;BME280;29470;53.550;9.926;2023-03-04T16:14:43;101425.69;;;7.63;54.03
43824;BME280;29470;53.550;9.926;2023-03-04T16:19:47;101426.38;;;8.09;53.50
43824;BME280;29470;53.550;9.926;2023-03-04T16:24:51;101434.00;;;7.61;54.27
43824;BME280;29470;53.550;9.926;2023-03-04T16:29:55;101416.69;;;7.88;54.15
43824;BME280;29470;53.550;9.926;2023-03-04T16:34:58;101408.94;;;8.07;54.24
43824;BME280;29470;53.550;9.926;2023-03-04T16:40:04;101407.44;;;7.90;54.13
43824;BME280;29470;53.550;9.926;2023-03-04T16:45:13;101408.75;;;7.29;56.13
43824;BME280;29470;53.550;9.926;2023-03-04T16:50:17;101406.31;;;7.58;56.13
43824;BME280;29470;53.550;9.926;2023-03-04T16:55:23;101407.22;;;6.75;57.93
43824;BME280;29470;53.550;9.926;2023-03-04T17:00:27;101410.25;;;7.07;57.42
43824;BME280;29470;53.550;9.926;2023-03-04T17:05:31;101409.47;;;7.08;55.65
43824;BME280;29470;53.550;9.926;2023-03-04T17:10:35;101412.44;;;7.22;56.02
43824;BME280;29470;53.550;9.926;2023-03-04T17:15:38;101413.25;;;6.75;58.47
43824;BME280;29470;53.550;9.926;2023-03-04T17:20:43;101426.09;;;6.84;57.76
43824;BME280;29470;53.550;9.926;2023-03-04T17:25:53;101423.75;;;6.42;58.94
43824;BME280;29470;53.550;9.926;2023-03-04T17:30:56;101424.63;;;6.69;57.47
43824;BME280;29470;53.550;9.926;2023-03-04T17:35:59;101421.59;;;6.73;56.91
43824;BME280;29470;53.550;9.926;2023-03-04T17:41:04;101429.34;;;6.46;56.92
43824;BME280;29470;53.550;9.926;2023-03-04T17:46:10;101431.13;;;6.65;56.58
43824;BME280;29470;53.550;9.926;2023-03-04T17:51:14;101435.41;;;6.38;57.41
43824;BME280;29470;53.550;9.926;2023-03-04T17:56:18;101428.88;;;6.59;56.57
43824;BME280;29470;53.550;9.926;2023-03-04T18:01:21;101432.06;;;5.95;58.10
43824;BME280;29470;53.550;9.926;2023-03-04T18:06:24;101439.16;;;5.80;58.35
43824;BME280;29470;53.550;9.926;2023-03-04T18:11:29;101441.44;;;5.95;57.84
43824;BME280;29470;53.550;9.926;2023-03-04T18:16:32;101436.34;;;6.12;57.02
43824;BME280;29470;53.550;9.926;2023-03-04T18:21:35;101438.00;;;6.03;56.50
43824;BME280;29470;53.550;9.926;2023-03-04T18:26:40;101436.59;;;5.80;55.76
43824;BME280;29470;53.550;9.926;2023-03-04T18:31:43;101434.47;;;5.85;55.38
43824;BME280;29470;53.550;9.926;2023-03-04T18:36:45;101427.00;;;6.04;54.29
43824;BME280;29470;53.550;9.926;2023-03-04T18:41:50;101435.66;;;5.53;54.62
43824;BME280;29470;53.550;9.926;2023-03-04T18:46:54;101441.41;;;5.68;54.19
43824;BME280;29470;53.550;9.926;2023-03-04T18:51:58;101443.78;;;5.49;54.86
43824;BME280;29470;53.550;9.926;2023-03-04T18:57:07;101439.38;;;5.30;54.76
43824;BME280;29470;53.550;9.926;2023-03-04T19:02:13;101439.28;;;5.55;54.23
43824;BME280;29470;53.550;9.926;2023-03-04T19:07:20;101437.41;;;5.37;54.45
43824;BME280;29470;53.550;9.926;2023-03-04T19:12:25;101436.03;;;5.23;54.46
43824;BME280;29470;53.550;9.926;2023-03-04T19:17:28;101444.69;;;5.41;54.39
43824;BME280;29470;53.550;9.926;2023-03-04T19:22:33;101445.63;;;5.59;53.52
43824;BME280;29470;53.550;9.926;2023-03-04T19:27:37;101441.97;;;5.48;53.11
43824;BME280;29470;53.550;9.926;2023-03-04T19:32:40;101445.16;;;5.63;53.08
43824;BME280;29470;53.550;9.926;2023-03-04T19:37:44;101438.00;;;5.25;54.03
43824;BME280;29470;53.550;9.926;2023-03-04T19:42:48;101438.91;;;5.26;53.58
43824;BME280;29470;53.550;9.926;2023-03-04T19:47:50;101453.50;;;5.18;54.08
43824;BME280;29470;53.550;9.926;2023-03-04T19:52:53;101444.47;;;4.88;54.70
43824;BME280;29470;53.550;9.926;2023-03-04T19:57:58;101452.41;;;5.07;54.34
43824;BME280;29470;53.550;9.926;2023-03-04T20:03:00;101460.22;;;5.00;54.68
43824;BME280;29470;53.550;9.926;2023-03-04T20:08:05;101460.00;;;5.23;55.03
43824;BME280;29470;53.550;9.926;2023-03-04T20:13:09;101469.53;;;5.24;54.81
43824;BME280;29470;53.550;9.926;2023-03-04T20:18:12;101461.91;;;5.51;54.47
43824;BME280;29470;53.550;9.926;2023-03-04T20:23:15;101454.06;;;5.49;54.91
43824;BME280;29470;53.550;9.926;2023-03-04T20:28:22;101448.94;;;5.58;53.63
43824;BME280;29470;53.550;9.926;2023-03-04T20:33:25;101442.78;;;5.91;53.34
43824;BME280;29470;53.550;9.926;2023-03-04T20:38:28;101433.56;;;5.67;53.52
43824;BME280;29470;53.550;9.926;2023-03-04T20:43:32;101425.13;;;6.21;52.67
43824;BME280;29470;53.550;9.926;2023-03-04T20:48:35;101435.09;;;6.35;52.42
43824;BME280;29470;53.550;9.926;2023-03-04T20:53:37;101431.50;;;6.24;52.46
43824;BME280;29470;53.550;9.926;2023-03-04T20:58:42;101426.75;;;6.46;52.10
43824;BME280;29470;53.550;9.926;2023-03-04T21:03:47;101420.16;;;6.22;52.44
43824;BME280;29470;53.550;9.926;2023-03-04T21:08:50;101407.94;;;6.11;52.74
43824;BME280;29470;53.550;9.926;2023-03-04T21:13:54;101416.84;;;6.23;53.26
43824;BME280;29470;53.550;9.926;2023-03-04T21:18:58;101414.56;;;5.82;53.90
43824;BME280;29470;53.550;9.926;2023-03-04T21:24:01;101408.94;;;5.78;54.65
43824;BME280;29470;53.550;9.926;2023-03-04T21:29:05;101403.22;;;5.80;54.75
43824;BME280;29470;53.550;9.926;2023-03-04T21:34:13;101405.78;;;5.71;55.46
43824;BME280;29470;53.550;9.926;2023-03-04T21:39:18;101395.78;;;5.57;55.96
43824;BME280;29470;53.550;9.926;2023-03-04T21:44:23;101391.28;;;5.81;55.66
43824;BME280;29470;53.550;9.926;2023-03-04T21:49:48;101390.53;;;5.82;56.15
43824;BME280;29470;53.550;9.926;2023-03-04T21:54:51;101385.53;;;5.48;58.28
43824;BME280;29470;53.550;9.926;2023-03-04T21:59:57;101387.06;;;5.90;58.03
43824;BME280;29470;53.550;9.926;2023-03-04T22:05:00;101389.19;;;5.85;59.33
43824;BME280;29470;53.550;9.926;2023-03-04T22:10:04;101387.34;;;5.75;61.55
43824;BME280;29470;53.550;9.926;2023-03-04T22:15:09;101383.28;;;5.69;62.56
43824;BME280;29470;53.550;9.926;2023-03-04T22:20:31;101384.66;;;5.92;62.67
43824;BME280;29470;53.550;9.926;2023-03-04T22:25:36;101383.91;;;5.75;63.24
43824;BME280;29470;53.550;9.926;2023-03-04T22:30:40;101387.22;;;5.83;64.36
43824;BME280;29470;53.550;9.926;2023-03-04T22:35:43;101384.19;;;5.69;65.44
43824;BME280;29470;53.550;9.926;2023-03-04T22:40:46;101381.63;;;5.60;65.78
43824;BME280;29470;53.550;9.926;2023-03-04T22:45:51;101371.03;;;5.66;66.71
43824;BME280;29470;53.550;9.926;2023-03-04T22:50:54;101363.34;;;5.66;65.87
43824;BME280;29470;53.550;9.926;2023-03-04T22:55:57;101358.06;;;5.65;66.26
43824;BME280;29470;53.550;9.926;2023-03-04T23:01:02;101342.38;;;5.97;65.31
43824;BME280;29470;53.550;9.926;2023-03-04T23:06:07;101338.59;;;5.67;65.62
43824;BME280;29470;53.550;9.926;2023-03-04T23:11:12;101350.53;;;5.75;65.92
43824;BME280;29470;53.550;9.926;2023-03-04T23:16:17;101342.34;;;5.88;64.31
43824;BME280;29470;53.550;9.926;2023-03-04T23:21:22;101326.84;;;6.04;63.40
43824;BME280;29470;53.550;9.926;2023-03-04T23:26:26;101330.56;;;5.37;63.89
43824;BME280;29470;53.550;9.926;2023-03-04T23:31:32;101313.81;;;5.85;62.20
43824;BME280;29470;53.550;9.926;2023-03-04T23:36:35;101315.34;;;5.30;63.75
43824;BME280;29470;53.550;9.926;2023-03-04T23:41:38;101308.25;;;5.27;64.09
43824;BME280;29470;53.550;9.926;2023-03-04T23:46:42;101304.91;;;5.28;64.72
43824;BME280;29470;53.550;9.926;2023-03-04T23:51:45;101312.78;;;5.39;63.90
43824;BME280;29470;53.550;9.926;2023-03-04T23:56:48;101305.22;;;5.58;63.33
